createdAt,value
2022-12-20T00:01:37.472Z,71.03
2022-12-20T00:05:41.337Z,70.78
2022-12-20T00:09:44.885Z,71.09
2022-12-20T00:13:48.530Z,71.31
2022-12-20T00:17:53.939Z,71.20
2022-12-20T00:21:57.109Z,71.14
2022-12-20T00:26:05.073Z,70.89
2022-12-20T00:30:09.439Z,70.86
2022-12-20T00:34:14.016Z,71.10
2022-12-20T00:38:17.681Z,71.13
2022-12-20T00:42:20.722Z,70.84
2022-12-20T00:46:25.172Z,71.01
2022-12-20T00:50:29.821Z,70.98
2022-12-20T00:54:33.314Z,71.10
2022-12-20T00:58:38.138Z,71.01
2022-12-20T01:02:41.843Z,70.74
2022-12-20T01:06:46.493Z,70.31
2022-12-20T01:11:00.222Z,71.09
2022-12-20T01:15:03.332Z,70.97
2022-12-20T01:19:08.476Z,71.04
2022-12-20T01:23:13.498Z,70.90
2022-12-20T01:27:16.740Z,70.91
2022-12-20T01:31:20.725Z,70.99
2022-12-20T01:35:24.133Z,70.61
2022-12-20T01:39:28.532Z,70.82
2022-12-20T01:43:49.512Z,70.90
2022-12-20T01:47:52.968Z,70.70
2022-12-20T01:52:01.652Z,71.12
2022-12-20T01:56:08.987Z,70.88
2022-12-20T02:00:13.351Z,70.97
2022-12-20T02:04:16.680Z,70.89
2022-12-20T02:08:21.627Z,71.10
2022-12-20T02:12:29.032Z,71.43
2022-12-20T02:16:39.139Z,71.67
2022-12-20T02:21:19.971Z,71.45
2022-12-20T02:25:46.326Z,71.73
2022-12-20T02:30:17.099Z,71.93
2022-12-20T02:34:25.290Z,71.87
2022-12-20T02:38:31.419Z,71.54
2022-12-20T02:42:36.328Z,71.71
2022-12-20T02:46:41.093Z,71.72
2022-12-20T02:50:48.627Z,71.78
2022-12-20T02:54:51.791Z,71.64
2022-12-20T02:58:59.851Z,71.58
2022-12-20T03:03:24.990Z,71.35
2022-12-20T03:07:30.958Z,71.63
2022-12-20T03:11:34.332Z,71.65
2022-12-20T03:15:37.823Z,71.74
2022-12-20T03:19:42.695Z,71.56
2022-12-20T03:23:45.724Z,71.52
2022-12-20T03:27:48.972Z,71.43
2022-12-20T03:31:52.127Z,71.35
2022-12-20T03:35:56.986Z,71.50
2022-12-20T03:40:00.201Z,71.21
2022-12-20T03:44:03.703Z,71.43
2022-12-20T03:48:06.862Z,71.25
2022-12-20T03:52:13.609Z,71.42
2022-12-20T03:56:16.736Z,71.52
2022-12-20T04:00:21.044Z,71.09
2022-12-20T04:04:24.240Z,71.52
2022-12-20T04:08:28.987Z,71.30
2022-12-20T04:12:32.056Z,71.14
2022-12-20T04:16:36.158Z,71.05
2022-12-20T04:20:39.219Z,70.83
2022-12-20T04:24:43.940Z,71.15
2022-12-20T04:28:47.009Z,70.82
2022-12-20T04:32:50.281Z,71.02
2022-12-20T04:36:53.345Z,70.95
2022-12-20T04:40:58.279Z,70.85
2022-12-20T04:45:01.304Z,71.21
2022-12-20T04:49:04.894Z,70.94
2022-12-20T04:53:25.464Z,71.32
2022-12-20T04:57:30.187Z,71.10
2022-12-20T05:01:33.523Z,71.19
2022-12-20T05:05:36.948Z,71.05
2022-12-20T05:09:40.454Z,71.16
2022-12-20T05:13:45.299Z,71.35
2022-12-20T05:17:48.321Z,71.16
2022-12-20T05:22:08.657Z,71.09
2022-12-20T05:26:20.663Z,71.28
2022-12-20T05:30:26.201Z,71.00
2022-12-20T05:34:29.449Z,71.10
2022-12-20T05:38:33.190Z,70.91
2022-12-20T05:42:36.677Z,70.75
2022-12-20T05:46:41.473Z,70.87
2022-12-20T05:50:45.433Z,71.17
2022-12-20T05:54:49.105Z,71.03
2022-12-20T05:58:52.122Z,71.00
2022-12-20T06:02:57.061Z,70.67
2022-12-20T06:07:01.123Z,70.83
2022-12-20T06:11:05.721Z,70.99
2022-12-20T06:15:10.993Z,70.97
2022-12-20T06:19:21.239Z,71.19
2022-12-20T06:23:24.849Z,71.16
2022-12-20T06:27:28.254Z,71.24
2022-12-20T06:31:31.455Z,71.30
2022-12-20T06:35:36.662Z,70.94
2022-12-20T06:39:39.951Z,70.86
2022-12-20T06:43:51.028Z,70.82
2022-12-20T06:47:54.104Z,70.93
2022-12-20T06:51:58.901Z,70.81
2022-12-20T06:56:02.028Z,70.66
2022-12-20T07:00:08.750Z,70.77
2022-12-20T07:04:11.909Z,71.01
2022-12-20T07:08:16.791Z,71.11
2022-12-20T07:12:20.200Z,70.98
2022-12-20T07:16:23.759Z,71.08
2022-12-20T07:20:27.945Z,70.79
2022-12-20T07:24:33.709Z,70.97
2022-12-20T07:28:36.851Z,70.85
2022-12-20T07:32:40.213Z,71.02
2022-12-20T07:36:43.523Z,70.80
2022-12-20T07:40:48.652Z,70.86
2022-12-20T07:44:51.683Z,70.86
2022-12-20T07:48:55.271Z,70.66
2022-12-20T07:52:59.217Z,70.62
2022-12-20T07:57:08.710Z,70.49
2022-12-20T08:01:13.928Z,70.32
2022-12-20T08:05:18.390Z,70.65
2022-12-20T08:09:21.751Z,70.28
2022-12-20T08:13:27.005Z,70.23
2022-12-20T08:17:30.405Z,70.53
2022-12-20T08:21:34.081Z,69.77
2022-12-20T08:25:41.490Z,69.37
2022-12-20T08:29:47.255Z,69.81
2022-12-20T08:39:08.476Z,70.10
2022-12-20T08:43:11.632Z,69.93
2022-12-20T08:47:16.868Z,69.54
2022-12-20T08:51:20.179Z,69.12
2022-12-20T08:55:29.020Z,68.91
2022-12-20T08:59:32.891Z,68.84
2022-12-20T09:03:39.400Z,68.55
2022-12-20T09:07:42.544Z,68.37
2022-12-20T09:11:46.066Z,68.23
2022-12-20T09:15:49.251Z,67.74
2022-12-20T09:19:55.320Z,67.75
2022-12-20T09:23:59.297Z,68.10
2022-12-20T09:28:02.743Z,67.78
2022-12-20T09:32:06.088Z,68.53
2022-12-20T09:36:13.584Z,67.63
2022-12-20T09:40:21.195Z,68.11
2022-12-20T09:44:28.912Z,67.67
2022-12-20T09:48:35.845Z,67.50
2022-12-20T09:53:01.441Z,68.21
2022-12-20T09:57:14.664Z,68.15
2022-12-20T10:01:25.265Z,67.52
2022-12-20T10:05:41.076Z,67.58
2022-12-20T10:10:02.283Z,67.28
2022-12-20T10:14:18.963Z,66.55
2022-12-20T10:18:38.763Z,66.06
2022-12-20T10:22:48.674Z,66.27
2022-12-20T10:26:53.978Z,66.90
2022-12-20T10:31:02.286Z,66.13
2022-12-20T10:35:24.061Z,66.58
2022-12-20T10:39:42.801Z,65.55
2022-12-20T10:43:51.029Z,64.68
2022-12-20T10:48:01.313Z,65.15
2022-12-20T10:52:13.162Z,64.37
2022-12-20T10:56:21.748Z,65.76
2022-12-20T11:00:32.833Z,66.14
2022-12-20T11:04:38.811Z,65.67
2022-12-20T11:08:51.066Z,66.82
2022-12-20T11:12:58.397Z,65.10
2022-12-20T11:17:08.473Z,65.68
2022-12-20T11:21:27.866Z,65.01
2022-12-20T11:25:43.482Z,64.14
2022-12-20T11:30:10.090Z,65.34
2022-12-20T11:34:29.397Z,66.02
2022-12-20T11:38:42.084Z,65.20
2022-12-20T11:42:54.188Z,67.86
2022-12-20T11:47:09.544Z,64.55
2022-12-20T11:51:26.790Z,63.98
2022-12-20T11:55:34.973Z,63.35
2022-12-20T11:59:44.673Z,64.24
2022-12-20T12:04:00.765Z,65.00
2022-12-20T12:08:18.185Z,65.63
2022-12-20T12:12:26.742Z,65.50
2022-12-20T12:16:35.603Z,66.15
2022-12-20T12:20:53.444Z,66.25
2022-12-20T12:25:04.019Z,65.48
2022-12-20T12:29:13.368Z,65.62
2022-12-20T12:33:25.705Z,65.59
2022-12-20T12:37:55.088Z,66.20
2022-12-20T12:42:42.561Z,67.29
2022-12-20T12:46:47.658Z,65.63
2022-12-20T12:50:54.253Z,65.33
2022-12-20T12:54:57.575Z,65.24
2022-12-20T12:59:26.026Z,66.06
2022-12-20T13:03:46.257Z,66.28
2022-12-20T13:07:51.280Z,64.63
2022-12-20T13:12:02.062Z,64.44
2022-12-20T13:16:14.384Z,65.45
2022-12-20T13:20:21.999Z,65.14
2022-12-20T13:24:37.800Z,65.46
2022-12-20T13:28:47.781Z,65.56
2022-12-20T13:33:23.723Z,65.56
2022-12-20T13:37:28.384Z,64.57
2022-12-20T13:41:37.864Z,64.92
2022-12-20T13:45:44.988Z,64.42
2022-12-20T13:49:49.750Z,65.17
2022-12-20T13:53:58.393Z,65.37
2022-12-20T13:58:07.817Z,65.07
2022-12-20T14:02:18.803Z,65.96
2022-12-20T14:06:27.164Z,66.37
2022-12-20T14:10:32.881Z,66.37
2022-12-20T14:14:39.284Z,66.79
2022-12-20T14:18:42.488Z,66.50
2022-12-20T14:23:00.769Z,67.40
2022-12-20T14:27:07.891Z,66.69
2022-12-20T14:31:26.416Z,67.31
2022-12-20T14:35:30.090Z,67.25
2022-12-20T14:39:38.127Z,67.61
2022-12-20T14:43:42.277Z,67.70
2022-12-20T14:47:51.913Z,67.60
2022-12-20T14:52:09.333Z,68.28
2022-12-20T14:56:31.308Z,68.27
2022-12-20T15:00:36.047Z,68.13
2022-12-20T15:04:39.854Z,68.14
2022-12-20T15:08:43.431Z,68.65
2022-12-20T15:12:54.003Z,68.88
2022-12-20T15:16:59.619Z,69.07
2022-12-20T15:21:06.589Z,69.14
2022-12-20T15:25:17.820Z,69.01
2022-12-20T15:29:25.395Z,69.30
2022-12-20T15:33:33.676Z,69.52
2022-12-20T15:37:37.107Z,69.57
2022-12-20T15:41:43.170Z,69.85
2022-12-20T15:45:51.481Z,69.98
2022-12-20T15:49:54.909Z,69.76
2022-12-20T15:53:58.479Z,69.78
2022-12-20T15:58:01.753Z,69.61
2022-12-20T16:02:18.160Z,69.99
2022-12-20T16:06:21.525Z,69.80
2022-12-20T16:10:25.728Z,70.06
2022-12-20T16:14:28.963Z,70.36
2022-12-20T16:18:34.935Z,70.36
2022-12-20T16:22:38.395Z,70.12
2022-12-20T16:26:42.487Z,70.60
2022-12-20T16:30:52.681Z,70.66
2022-12-20T16:34:59.435Z,70.49
2022-12-20T16:39:02.919Z,70.66
2022-12-20T16:43:06.474Z,70.57
2022-12-20T16:47:11.333Z,70.67
2022-12-20T16:51:29.345Z,71.15
2022-12-20T16:55:39.518Z,70.85
2022-12-20T16:59:43.902Z,70.70
2022-12-20T17:03:47.914Z,71.16
2022-12-20T17:07:53.269Z,70.85
2022-12-20T17:11:56.762Z,71.16
2022-12-20T17:16:00.291Z,71.24
2022-12-20T17:20:04.249Z,71.14
2022-12-20T17:24:20.379Z,71.51
2022-12-20T17:28:26.449Z,71.23
2022-12-20T17:32:30.045Z,71.23
2022-12-20T17:36:38.028Z,70.98
2022-12-20T17:40:43.493Z,71.41
2022-12-20T17:44:47.576Z,70.97
2022-12-20T17:48:51.457Z,71.11
2022-12-20T17:52:56.019Z,71.49
2022-12-20T17:57:00.553Z,71.17
2022-12-20T18:01:04.223Z,71.50
2022-12-20T18:05:09.509Z,71.09
2022-12-20T18:09:15.700Z,71.18
2022-12-20T18:13:20.693Z,71.10
2022-12-20T18:17:24.307Z,70.89
2022-12-20T18:21:29.005Z,71.30
2022-12-20T18:25:32.766Z,71.20
2022-12-20T18:29:37.172Z,70.81
2022-12-20T18:33:41.015Z,70.87
2022-12-20T18:37:45.370Z,71.28
2022-12-20T18:41:49.231Z,71.38
2022-12-20T18:45:53.872Z,71.27
2022-12-20T18:49:57.972Z,71.10
2022-12-20T18:54:02.269Z,71.21
2022-12-20T18:58:05.907Z,71.04
2022-12-20T19:02:12.623Z,71.13
2022-12-20T19:06:16.833Z,71.36
2022-12-20T19:10:19.935Z,70.94
2022-12-20T19:14:23.711Z,71.14
2022-12-20T19:18:29.011Z,71.32
2022-12-20T19:22:32.743Z,71.09
2022-12-20T19:26:37.828Z,71.08
2022-12-20T19:30:41.154Z,71.26
2022-12-20T19:34:46.829Z,71.11
2022-12-20T19:38:52.281Z,71.39
2022-12-20T19:42:56.211Z,71.09
2022-12-20T19:47:06.029Z,71.23
2022-12-20T19:51:13.862Z,70.95
2022-12-20T19:55:18.094Z,71.16
2022-12-20T19:59:21.387Z,71.06
2022-12-20T20:03:27.267Z,71.03
2022-12-20T20:07:32.277Z,71.01
2022-12-20T20:11:36.179Z,70.96
2022-12-20T20:15:44.895Z,71.22
2022-12-20T20:19:51.906Z,71.42
2022-12-20T20:24:00.686Z,71.21
2022-12-20T20:28:05.069Z,71.10
2022-12-20T20:32:10.565Z,71.32
2022-12-20T20:36:15.956Z,71.20
2022-12-20T20:40:23.241Z,71.13
2022-12-20T20:44:27.753Z,70.93
2022-12-20T20:48:33.685Z,71.23
2022-12-20T20:52:39.880Z,71.17
2022-12-20T20:56:45.726Z,71.11
2022-12-20T21:00:52.305Z,70.87
2022-12-20T21:05:52.038Z,71.24
2022-12-20T21:09:22.144Z,71.04
2022-12-20T21:13:27.563Z,71.36
2022-12-20T21:17:33.404Z,70.92
2022-12-20T21:21:37.360Z,70.95
2022-12-20T21:25:41.137Z,70.97
2022-12-20T21:29:45.885Z,70.86
2022-12-20T21:33:49.471Z,70.69
2022-12-20T21:37:52.906Z,70.94
2022-12-20T21:42:01.704Z,70.98
2022-12-20T21:46:11.929Z,70.53
2022-12-20T21:50:16.145Z,70.78
2022-12-20T21:54:19.472Z,70.89
2022-12-20T21:58:23.029Z,70.94
2022-12-20T22:02:27.923Z,71.41
2022-12-20T22:06:32.235Z,71.10
2022-12-20T22:10:35.344Z,70.70
2022-12-20T22:14:41.460Z,70.77
2022-12-20T22:18:49.856Z,71.12
2022-12-20T22:22:53.353Z,71.02
2022-12-20T22:26:56.767Z,70.97
2022-12-20T22:31:00.231Z,71.00
2022-12-20T22:35:05.256Z,70.98
2022-12-20T22:39:09.270Z,70.96
2022-12-20T22:43:15.548Z,70.97
2022-12-20T22:51:41.020Z,71.14
2022-12-20T22:55:44.091Z,70.90
2022-12-20T22:59:47.495Z,71.11
2022-12-20T23:03:51.094Z,70.72
2022-12-20T23:07:55.489Z,71.31
2022-12-20T23:12:16.348Z,70.99
2022-12-20T23:16:19.635Z,71.27
2022-12-20T23:20:40.347Z,71.26
2022-12-20T23:24:45.249Z,71.51
2022-12-20T23:28:49.198Z,71.29
2022-12-20T23:32:54.205Z,71.26
2022-12-20T23:36:59.149Z,71.59
2022-12-20T23:41:08.486Z,71.54
2022-12-20T23:45:12.774Z,71.22
2022-12-20T23:49:15.890Z,71.37
2022-12-20T23:53:19.384Z,71.42
2022-12-20T23:57:24.110Z,71.45
